Time;durP1;ratioP1;P1;durP2;ratioP2;P2;SDS_P1;SDS_P2;PMS_P1;PMS_P2;Temp;Humidity;BMP_temperature;BMP_pressure;BME280_temperature;BME280_humidity;BME280_pressure;Samples;Min_cycle;Max_cycle;Signal;HPM_P1;HPM_P2
2022/05/01 00:02:08;;;;;;;27.25;17.08;;;;;;;8.22;100.00;102328.09;5107360;28;20020;-63
2022/05/01 00:04:33;;;;;;;26.98;16.67;;;;;;;8.31;100.00;102328.44;5105619;28;20028;-64
2022/05/01 00:06:59;;;;;;;26.08;16.50;;;;;;;8.36;100.00;102342.69;5105953;28;20031;-63
2022/05/01 00:09:24;;;;;;;27.15;16.30;;;;;;;8.40;100.00;102335.78;5106922;28;20035;-64
2022/05/01 00:11:49;;;;;;;26.60;16.40;;;;;;;8.37;100.00;102333.94;5105218;28;20463;-63
2022/05/01 00:14:15;;;;;;;26.00;16.50;;;;;;;8.34;100.00;102330.28;5107640;28;20024;-63
2022/05/01 00:16:42;;;;;;;26.30;16.33;;;;;;;8.31;100.00;102333.69;5104664;27;20032;-67
2022/05/01 00:19:10;;;;;;;26.55;16.05;;;;;;;8.29;100.00;102327.50;5106940;28;20028;-64
2022/05/01 00:21:36;;;;;;;26.73;16.38;;;;;;;8.34;100.00;102325.94;5104882;28;20034;-63
2022/05/01 00:24:02;;;;;;;25.83;15.95;;;;;;;8.30;100.00;102331.94;5106248;28;20154;-63
2022/05/01 00:26:28;;;;;;;27.20;15.80;;;;;;;8.39;100.00;102326.09;5106012;28;20039;-63
2022/05/01 00:28:53;;;;;;;26.83;16.67;;;;;;;8.41;100.00;102326.16;5104940;28;20020;-68
2022/05/01 00:31:19;;;;;;;26.58;16.70;;;;;;;8.41;100.00;102324.41;5107370;28;20019;-63
2022/05/01 00:36:29;;;;;;;26.13;15.55;;;;;;;8.48;100.00;102329.09;5105557;28;20116;-65
2022/05/01 00:39:03;;;;;;;25.75;15.85;;;;;;;8.42;100.00;102320.03;5106510;28;20500;-64
2022/05/01 00:41:33;;;;;;;26.13;15.55;;;;;;;8.35;100.00;102326.81;5105310;28;20024;-63
2022/05/01 00:44:03;;;;;;;27.65;16.50;;;;;;;8.30;100.00;102325.75;5105656;28;20030;-64
2022/05/01 00:46:39;;;;;;;27.75;16.92;;;;;;;8.18;100.00;102331.44;5104914;28;20044;-64
2022/05/01 00:49:08;;;;;;;26.88;16.50;;;;;;;8.18;100.00;102320.91;5104523;28;20036;-62
2022/05/01 00:51:38;;;;;;;26.60;16.17;;;;;;;8.18;100.00;102324.47;5105619;28;20016;-64
2022/05/01 00:54:07;;;;;;;26.60;16.65;;;;;;;8.22;100.00;102324.56;5104298;28;20025;-63
2022/05/01 00:56:35;;;;;;;25.77;15.85;;;;;;;8.22;100.00;102322.81;5105378;28;20486;-63
2022/05/01 00:59:00;;;;;;;26.10;16.10;;;;;;;8.21;100.00;102318.38;5105103;28;20371;-63
2022/05/01 01:01:26;;;;;;;27.13;16.35;;;;;;;8.18;100.00;102313.94;5104906;28;20016;-66
2022/05/01 01:03:54;;;;;;;26.23;15.98;;;;;;;8.25;100.00;102316.78;5106080;28;20028;-65
2022/05/01 01:06:20;;;;;;;24.90;15.55;;;;;;;8.25;100.00;102306.25;5103597;28;20027;-63
2022/05/01 01:08:45;;;;;;;27.50;16.55;;;;;;;8.29;100.00;102311.69;5106795;27;20019;-63
2022/05/01 01:11:11;;;;;;;26.48;16.52;;;;;;;8.23;100.00;102308.81;5103305;28;20026;-63
2022/05/01 01:13:36;;;;;;;25.75;15.40;;;;;;;8.26;100.00;102311.56;5105628;28;20483;-64
2022/05/01 01:16:07;;;;;;;26.15;16.27;;;;;;;8.23;100.00;102314.09;5104531;28;20026;-63
2022/05/01 01:18:33;;;;;;;26.33;16.58;;;;;;;8.21;100.00;102305.22;5105191;28;20081;-63
2022/05/01 01:20:58;;;;;;;26.95;16.80;;;;;;;8.15;100.00;102311.16;5104812;27;20455;-63
2022/05/01 01:23:24;;;;;;;27.13;17.10;;;;;;;8.03;100.00;102308.94;5104204;28;20383;-64
2022/05/01 01:25:49;;;;;;;27.90;17.13;;;;;;;8.00;100.00;102314.09;5106011;28;20028;-63
2022/05/01 01:28:15;;;;;;;26.42;16.73;;;;;;;7.99;100.00;102317.59;5102716;28;20039;-63
2022/05/01 01:33:28;;;;;;;27.23;17.83;;;;;;;7.91;100.00;102311.13;5104541;28;20097;-63
2022/05/01 01:35:56;;;;;;;26.58;17.00;;;;;;;7.85;100.00;102314.41;5105195;28;20023;-63
2022/05/01 01:38:22;;;;;;;26.55;17.05;;;;;;;7.79;100.00;102306.28;5102957;28;20035;-63
2022/05/01 01:40:52;;;;;;;27.85;18.10;;;;;;;7.75;100.00;102308.75;5106493;28;20030;-62
2022/05/01 01:43:22;;;;;;;27.30;17.48;;;;;;;7.73;100.00;102310.41;5102686;28;20055;-63
2022/05/01 01:45:47;;;;;;;26.35;17.15;;;;;;;7.68;100.00;102312.88;5102325;28;20059;-63
2022/05/01 01:48:15;;;;;;;27.80;18.35;;;;;;;7.67;100.00;102306.72;5102605;28;20046;-63
2022/05/01 01:50:42;;;;;;;29.48;18.15;;;;;;;7.64;100.00;102303.94;5105483;28;20038;-63
2022/05/01 01:53:09;;;;;;;27.38;17.77;;;;;;;7.66;100.00;102304.03;5103220;28;20503;-63
2022/05/01 01:55:38;;;;;;;27.77;18.15;;;;;;;7.59;100.00;102305.50;5104867;28;20360;-62
2022/05/01 01:58:05;;;;;;;27.70;18.13;;;;;;;7.56;100.00;102307.09;5103334;28;20076;-63
2022/05/01 02:00:31;;;;;;;28.35;18.20;;;;;;;7.49;100.00;102300.72;5103958;28;20028;-64
2022/05/01 02:02:58;;;;;;;28.83;18.67;;;;;;;7.45;100.00;102304.94;5104348;28;20047;-63
2022/05/01 02:05:24;;;;;;;28.08;18.23;;;;;;;7.43;100.00;102304.00;5103131;28;20032;-63
2022/05/01 02:07:49;;;;;;;28.70;18.65;;;;;;;7.40;100.00;102305.63;5105430;28;20023;-63
2022/05/01 02:10:15;;;;;;;27.35;18.80;;;;;;;7.33;100.00;102294.81;5100864;28;20045;-63
2022/05/01 02:12:40;;;;;;;29.13;19.35;;;;;;;7.32;100.00;102294.75;5104974;28;20561;-65
2022/05/01 02:15:06;;;;;;;29.35;18.75;;;;;;;7.25;100.00;102293.63;5102690;28;20110;-63
2022/05/01 02:17:31;;;;;;;28.75;18.75;;;;;;;7.28;100.00;102295.47;5103838;28;20035;-62
2022/05/01 02:19:57;;;;;;;29.50;19.45;;;;;;;7.27;100.00;102298.94;5104052;28;20028;-64
2022/05/01 02:22:22;;;;;;;29.50;19.35;;;;;;;7.26;100.00;102291.88;5102252;28;20020;-64
2022/05/01 02:24:48;;;;;;;28.52;18.80;;;;;;;7.30;100.00;102293.81;5105375;28;20078;-64
2022/05/01 02:27:14;;;;;;;28.67;19.48;;;;;;;7.25;100.00;102298.88;5101813;28;20111;-63
2022/05/01 02:29:42;;;;;;;29.73;20.75;;;;;;;7.17;100.00;102296.78;5104585;28;20145;-63
2022/05/01 02:32:07;;;;;;;29.95;20.40;;;;;;;7.05;100.00;102291.88;5102602;28;20020;-64
2022/05/01 02:34:32;;;;;;;30.08;20.17;;;;;;;7.10;100.00;102285.97;5103869;28;20370;-63
2022/05/01 02:36:58;;;;;;;30.73;21.38;;;;;;;7.07;100.00;102277.97;5103853;28;20144;-63
2022/05/01 02:39:24;;;;;;;29.45;21.08;;;;;;;6.98;100.00;102285.47;5102358;28;20032;-63
2022/05/01 02:41:50;;;;;;;30.60;20.65;;;;;;;6.94;100.00;102275.66;5104554;28;20027;-63
2022/05/01 02:44:16;;;;;;;29.92;20.88;;;;;;;6.95;100.00;102273.09;5101974;28;20028;-64
2022/05/01 02:46:41;;;;;;;29.25;20.65;;;;;;;7.05;100.00;102270.84;5078019;28;20135;-63
2022/05/01 02:49:07;;;;;;;28.90;19.23;;;;;;;7.06;100.00;102272.63;5064366;28;20044;-63
2022/05/01 02:51:32;;;;;;;30.58;20.17;;;;;;;7.05;100.00;102281.34;5062847;28;20015;-62
2022/05/01 02:53:58;;;;;;;29.30;20.08;;;;;;;6.97;100.00;102274.06;5062438;28;20044;-62
2022/05/01 02:56:25;;;;;;;29.98;21.13;;;;;;;6.95;100.00;102266.94;5063448;28;20033;-62
2022/05/01 02:58:50;;;;;;;29.33;20.38;;;;;;;6.93;100.00;102272.13;5060981;28;20029;-63
2022/05/01 03:01:15;;;;;;;30.33;20.55;;;;;;;6.95;100.00;102267.84;5064460;28;20024;-62
2022/05/01 03:03:41;;;;;;;31.83;21.58;;;;;;;6.84;100.00;102276.09;5061092;28;20025;-63
2022/05/01 03:06:06;;;;;;;32.80;20.27;;;;;;;6.80;100.00;102275.06;5063461;28;20029;-63
2022/05/01 03:08:32;;;;;;;30.45;20.45;;;;;;;6.78;100.00;102266.22;5062552;28;20025;-63
2022/05/01 03:10:57;;;;;;;30.02;21.00;;;;;;;6.77;100.00;102267.03;5062047;28;20024;-63
2022/05/01 03:13:22;;;;;;;30.48;20.58;;;;;;;6.75;100.00;102266.97;5063634;28;20075;-64
2022/05/01 03:15:48;;;;;;;30.75;20.52;;;;;;;6.74;100.00;102270.47;5061926;28;20498;-64
2022/05/01 03:23:41;;;;;;;29.90;20.80;;;;;;;6.63;100.00;102259.47;5068093;28;20173;-64
2022/05/01 03:26:06;;;;;;;29.08;20.08;;;;;;;6.61;100.00;102258.53;5065642;28;20486;-63
2022/05/01 03:28:32;;;;;;;31.10;21.05;;;;;;;6.57;100.00;102256.59;5066646;28;20098;-63
2022/05/01 03:30:57;;;;;;;32.05;21.00;;;;;;;6.56;100.00;102254.78;5067044;28;20467;-63
2022/05/01 03:33:23;;;;;;;30.45;21.40;;;;;;;6.56;100.00;102257.41;5070298;28;20035;-63
2022/05/01 03:35:49;;;;;;;30.00;20.58;;;;;;;6.60;100.00;102255.84;5065513;28;20074;-63
2022/05/01 03:38:16;;;;;;;32.42;21.42;;;;;;;6.56;100.00;102257.41;5066542;28;20028;-63
2022/05/01 03:40:47;;;;;;;32.80;21.80;;;;;;;6.54;100.00;102251.22;5066094;28;20079;-63
2022/05/01 03:43:15;;;;;;;31.67;21.00;;;;;;;6.51;100.00;102250.16;5064570;28;20071;-63
2022/05/01 03:45:40;;;;;;;32.40;22.02;;;;;;;6.42;100.00;102245.41;5070796;28;20082;-63
2022/05/01 03:48:06;;;;;;;31.63;21.45;;;;;;;6.30;100.00;102258.00;5107605;28;20031;-63
2022/05/01 03:50:31;;;;;;;31.92;22.35;;;;;;;6.21;100.00;102250.63;5104953;28;20025;-64
2022/05/01 03:52:57;;;;;;;31.40;22.42;;;;;;;6.18;100.00;102256.63;5108370;28;20030;-63
2022/05/01 03:55:22;;;;;;;31.13;21.15;;;;;;;6.15;100.00;102250.34;5105067;28;20027;-63
2022/05/01 03:57:48;;;;;;;31.02;21.63;;;;;;;6.01;100.00;102254.97;5106928;28;20459;-63
2022/05/01 04:00:18;;;;;;;30.92;20.98;;;;;;;5.97;100.00;102261.81;5106485;27;20024;-63
2022/05/01 04:02:44;;;;;;;32.13;21.70;;;;;;;5.90;100.00;102254.47;5106339;28;20524;-63
2022/05/01 04:05:11;;;;;;;32.60;23.27;;;;;;;5.80;100.00;102249.63;5106450;28;20023;-63
2022/05/01 04:07:36;;;;;;;32.17;21.42;;;;;;;5.67;100.00;102256.91;5105909;28;20060;-64
2022/05/01 04:10:02;;;;;;;32.20;22.45;;;;;;;5.59;100.00;102251.31;5107608;28;20032;-63
2022/05/01 04:12:27;;;;;;;31.83;22.17;;;;;;;5.50;100.00;102253.47;5104455;28;20016;-63
2022/05/01 04:14:53;;;;;;;33.47;23.42;;;;;;;5.43;100.00;102264.50;5107884;28;20103;-63
2022/05/01 04:17:18;;;;;;;31.48;21.90;;;;;;;5.39;100.00;102258.22;5104961;28;20063;-63
2022/05/01 04:19:44;;;;;;;32.35;22.88;;;;;;;5.32;100.00;102256.13;5106204;28;20024;-63
2022/05/01 04:22:09;;;;;;;33.15;23.67;;;;;;;5.28;100.00;102262.03;5105468;27;20394;-63
2022/05/01 04:24:34;;;;;;;33.08;22.83;;;;;;;5.16;100.00;102249.22;5104692;28;20039;-62
2022/05/01 04:27:00;;;;;;;33.50;23.38;;;;;;;5.19;100.00;102261.59;5107574;27;20023;-63
2022/05/01 04:29:38;;;;;;;31.58;22.73;;;;;;;5.14;100.00;102257.84;5104214;28;20024;-63
2022/05/01 04:32:05;;;;;;;33.78;23.83;;;;;;;5.17;100.00;102261.53;5104664;28;20027;-63
2022/05/01 04:34:32;;;;;;;33.55;24.38;;;;;;;5.18;100.00;102250.19;5107266;28;20028;-63
2022/05/01 04:36:58;;;;;;;35.92;24.58;;;;;;;5.21;100.00;102257.31;5103951;28;20033;-63
2022/05/01 04:39:24;;;;;;;33.20;23.65;;;;;;;5.22;100.00;102256.50;5106931;28;20497;-64
2022/05/01 04:41:49;;;;;;;35.00;24.92;;;;;;;5.26;100.00;102254.91;5104390;28;20031;-62
2022/05/01 04:44:15;;;;;;;37.25;24.50;;;;;;;5.23;100.00;102258.31;5106136;28;20089;-63
2022/05/01 04:46:40;;;;;;;34.22;23.88;;;;;;;5.15;100.00;102255.28;5105529;28;20482;-62
2022/05/01 04:49:05;;;;;;;33.75;24.25;;;;;;;5.17;100.00;102255.38;5104390;28;20410;-63
2022/05/01 04:51:31;;;;;;;34.03;23.98;;;;;;;5.22;100.00;102254.75;5107121;27;20046;-64
2022/05/01 04:53:57;;;;;;;34.80;24.25;;;;;;;5.22;100.00;102267.88;5103772;28;20028;-63
2022/05/01 04:59:07;;;;;;;34.30;24.27;;;;;;;5.32;100.00;102268.34;5104550;28;20074;-63
2022/05/01 05:01:41;;;;;;;32.90;23.52;;;;;;;5.44;100.00;102266.31;5108579;28;20020;-68
2022/05/01 05:04:07;;;;;;;34.80;26.20;;;;;;;5.52;100.00;102269.28;5111015;28;20027;-67
2022/05/01 05:06:32;;;;;;;36.90;27.35;;;;;;;5.52;100.00;102270.19;5114173;27;20024;-68
2022/05/01 05:11:41;;;;;;;36.33;27.27;;;;;;;5.62;100.00;102270.63;5102510;28;20100;-69
2022/05/01 05:14:06;;;;;;;37.15;26.08;;;;;;;5.63;100.00;102269.81;5103333;28;20463;-71
2022/05/01 05:16:32;;;;;;;34.03;24.20;;;;;;;5.70;100.00;102274.53;5107676;28;20539;-74
2022/05/01 05:18:57;;;;;;;33.95;24.70;;;;;;;5.69;100.00;102267.47;5106409;28;20462;-74
2022/05/01 05:21:22;;;;;;;33.10;24.92;;;;;;;5.76;100.00;102272.19;5102650;28;20470;-70
2022/05/01 05:23:48;;;;;;;34.92;24.33;;;;;;;5.86;100.00;102271.78;5111080;28;20356;-68
2022/05/01 05:26:13;;;;;;;36.03;26.70;;;;;;;5.85;100.00;102269.09;5103011;28;20035;-68
2022/05/01 05:28:38;;;;;;;38.75;26.73;;;;;;;5.90;100.00;102276.34;5107605;27;20024;-68
2022/05/01 05:31:04;;;;;;;36.35;26.77;;;;;;;6.01;100.00;102275.97;5099179;28;20066;-70
2022/05/01 05:33:30;;;;;;;34.95;26.33;;;;;;;6.06;100.00;102277.09;5106635;28;20169;-66
2022/05/01 05:35:55;;;;;;;36.30;26.80;;;;;;;6.11;100.00;102278.19;5105146;28;20028;-66
2022/05/01 05:38:20;;;;;;;36.63;26.83;;;;;;;6.20;100.00;102281.22;5106013;28;20077;-68
2022/05/01 05:40:48;;;;;;;36.75;26.42;;;;;;;6.30;100.00;102282.53;5103451;28;20046;-68
2022/05/01 05:43:16;;;;;;;36.50;26.40;;;;;;;6.41;100.00;102283.03;5106493;28;20092;-68
2022/05/01 05:45:42;;;;;;;36.13;27.02;;;;;;;6.49;100.00;102280.75;5104266;28;20455;-67
2022/05/01 05:48:07;;;;;;;35.58;26.80;;;;;;;6.50;100.00;102283.44;5105065;28;20038;-65
2022/05/01 05:50:33;;;;;;;35.42;27.35;;;;;;;6.59;100.00;102294.34;5104513;27;20020;-66
2022/05/01 05:52:58;;;;;;;38.78;28.10;;;;;;;6.66;100.00;102290.25;5105591;28;20020;-65
2022/05/01 05:55:23;;;;;;;38.53;28.80;;;;;;;6.78;100.00;102292.50;5106607;28;20110;-66
2022/05/01 05:57:49;;;;;;;38.45;29.42;;;;;;;6.94;100.00;102294.06;5112986;28;20034;-65
2022/05/01 06:00:14;;;;;;;39.35;29.63;;;;;;;7.08;100.00;102297.28;5113432;28;20028;-66
2022/05/01 06:02:40;;;;;;;37.47;28.65;;;;;;;7.26;100.00;102291.88;5113239;28;20378;-67
2022/05/01 06:05:06;;;;;;;36.85;27.63;;;;;;;7.49;100.00;102298.06;5112788;28;20080;-66
2022/05/01 06:07:32;;;;;;;36.05;28.08;;;;;;;7.65;100.00;102292.56;5113316;28;20128;-64
2022/05/01 06:09:57;;;;;;;37.47;28.25;;;;;;;7.83;100.00;102297.69;5113162;27;20111;-64
2022/05/01 06:12:23;;;;;;;36.70;27.55;;;;;;;8.00;100.00;102298.31;5112988;28;20454;-65
2022/05/01 06:14:48;;;;;;;37.08;28.25;;;;;;;8.13;100.00;102296.16;5112725;28;20066;-64
2022/05/01 06:17:13;;;;;;;35.67;27.92;;;;;;;8.31;100.00;102296.81;5112779;28;20139;-63
2022/05/01 06:19:39;;;;;;;34.38;26.75;;;;;;;8.43;100.00;102300.75;5112414;28;20036;-67
2022/05/01 06:22:05;;;;;;;36.88;26.70;;;;;;;8.56;100.00;102297.72;5112465;28;20055;-68
2022/05/01 06:24:30;;;;;;;36.53;26.85;;;;;;;8.65;100.00;102302.44;5111878;28;20024;-68
2022/05/01 06:26:57;;;;;;;35.67;26.08;;;;;;;8.68;100.00;102303.47;5112898;28;20120;-68
2022/05/01 06:29:22;;;;;;;33.83;24.38;;;;;;;8.73;100.00;102304.50;5112904;28;20363;-63
2022/05/01 06:31:48;;;;;;;35.03;26.13;;;;;;;8.78;100.00;102302.06;5112437;28;20065;-62
2022/05/01 06:34:14;;;;;;;35.28;24.90;;;;;;;8.80;100.00;102302.09;5112401;27;20046;-63
2022/05/01 06:36:40;;;;;;;34.70;24.73;;;;;;;8.76;100.00;102305.47;5112166;28;20122;-63
2022/05/01 06:39:06;;;;;;;33.72;24.80;;;;;;;8.71;100.00;102298.28;5112061;28;20102;-64
2022/05/01 06:41:31;;;;;;;33.83;25.15;;;;;;;8.83;100.00;102300.47;5106149;28;20618;-63
2022/05/01 06:43:57;;;;;;;34.72;24.70;;;;;;;8.93;100.00;102312.22;5102867;28;20036;-63
2022/05/01 06:46:22;;;;;;;32.47;24.33;;;;;;;9.02;100.00;102315.16;5103975;28;20545;-63
2022/05/01 06:48:47;;;;;;;33.88;24.15;;;;;;;9.18;100.00;102310.44;5101823;28;20023;-63
2022/05/01 06:51:12;;;;;;;34.92;25.35;;;;;;;9.19;100.00;102306.94;5104150;28;20024;-63
2022/05/01 06:53:38;;;;;;;34.97;25.15;;;;;;;9.32;100.00;102309.16;5101791;28;20020;-63
2022/05/01 06:56:04;;;;;;;32.75;23.75;;;;;;;9.37;100.00;102307.53;5103398;28;20383;-63
2022/05/01 06:58:31;;;;;;;33.63;24.13;;;;;;;9.39;100.00;102303.22;5103095;28;20031;-63
2022/05/01 07:00:56;;;;;;;33.15;23.90;;;;;;;9.45;100.00;102306.88;5102536;28;20035;-67
2022/05/01 07:03:22;;;;;;;33.25;24.00;;;;;;;9.52;100.00;102307.16;5104290;28;20023;-64
2022/05/01 07:05:47;;;;;;;35.15;24.90;;;;;;;9.62;100.00;102296.88;5101154;28;20103;-64
2022/05/01 07:08:13;;;;;;;32.88;24.20;;;;;;;9.64;100.00;102304.00;5105101;28;20023;-63
2022/05/01 07:10:38;;;;;;;33.00;23.50;;;;;;;9.69;100.00;102305.03;5101568;28;20455;-62
2022/05/01 07:13:04;;;;;;;32.45;22.77;;;;;;;9.72;100.00;102310.41;5103384;28;20026;-63
2022/05/01 07:15:29;;;;;;;32.28;23.15;;;;;;;9.83;100.00;102302.81;5103181;28;20016;-63
2022/05/01 07:17:54;;;;;;;33.10;23.80;;;;;;;9.88;100.00;102303.84;5101867;28;20110;-63
2022/05/01 07:20:20;;;;;;;32.35;23.17;;;;;;;9.95;100.00;102313.75;5104346;28;20474;-63
2022/05/01 07:22:45;;;;;;;32.65;23.42;;;;;;;10.04;100.00;102318.41;5101157;28;20024;-63
2022/05/01 07:25:11;;;;;;;31.92;22.88;;;;;;;10.08;100.00;102308.84;5103992;28;20080;-63
2022/05/01 07:27:36;;;;;;;30.90;21.15;;;;;;;10.07;100.00;102313.22;5101719;28;20041;-63
2022/05/01 07:30:01;;;;;;;31.98;21.58;;;;;;;10.07;100.00;102310.56;5102973;28;20020;-64
2022/05/01 07:32:27;;;;;;;34.67;22.65;;;;;;;10.11;100.00;102309.81;5102689;28;20391;-66
2022/05/01 07:34:52;;;;;;;30.83;20.88;;;;;;;10.20;100.00;102317.13;5108987;28;20035;-68
2022/05/01 07:37:20;;;;;;;32.08;21.55;;;;;;;10.33;100.00;102313.09;5111265;28;20023;-67
2022/05/01 07:39:45;;;;;;;30.30;20.48;;;;;;;10.40;100.00;102314.22;5111917;28;20023;-67
2022/05/01 07:42:11;;;;;;;29.55;19.48;;;;;;;10.59;100.00;102307.69;5110005;28;20030;-65
2022/05/01 07:44:36;;;;;;;30.00;19.25;;;;;;;10.77;100.00;102317.84;5111347;28;20034;-70
2022/05/01 07:47:02;;;;;;;29.27;19.20;;;;;;;10.74;100.00;102310.72;5111687;28;20055;-69
2022/05/01 07:49:27;;;;;;;30.67;20.50;;;;;;;10.68;100.00;102312.34;5109175;28;20016;-71
2022/05/01 07:51:52;;;;;;;29.42;20.05;;;;;;;10.62;100.00;102308.66;5111895;28;20382;-70
2022/05/01 07:54:17;;;;;;;29.15;19.90;;;;;;;10.73;100.00;102316.91;5111155;28;20111;-73
2022/05/01 07:56:43;;;;;;;29.98;19.52;;;;;;;10.88;100.00;102315.47;5111673;28;20027;-65
2022/05/01 07:59:11;;;;;;;31.15;19.17;;;;;;;10.95;100.00;102313.06;5111062;28;20022;-64
2022/05/01 08:01:37;;;;;;;28.13;17.30;;;;;;;11.03;100.00;102312.38;5112794;28;20038;-63
2022/05/01 08:06:46;;;;;;;28.63;16.35;;;;;;;11.40;100.00;102305.34;5113025;28;20115;-65
2022/05/01 08:09:12;;;;;;;26.20;15.18;;;;;;;11.55;100.00;102312.75;5108516;28;20040;-63
2022/05/01 08:11:37;;;;;;;27.83;15.50;;;;;;;11.56;100.00;102310.13;5106666;28;20023;-63
2022/05/01 08:14:03;;;;;;;26.73;16.20;;;;;;;11.57;100.00;102308.41;5106240;28;20077;-63
2022/05/01 08:16:29;;;;;;;26.63;15.90;;;;;;;12.07;100.00;102306.00;5105606;28;20474;-63
2022/05/01 08:21:38;;;;;;;25.50;13.95;;;;;;;13.62;100.00;102311.50;5106993;28;20080;-64
2022/05/01 08:24:03;;;;;;;24.83;12.85;;;;;;;14.22;100.00;102307.88;5100544;28;20479;-63
2022/05/01 08:26:33;;;;;;;24.42;12.80;;;;;;;14.57;97.77;102304.75;5107306;28;20035;-63
2022/05/01 08:28:59;;;;;;;23.80;13.20;;;;;;;15.09;95.10;102308.84;5104096;28;20020;-66
2022/05/01 08:31:25;;;;;;;24.42;14.02;;;;;;;15.50;90.88;102297.63;5106938;28;20024;-63
2022/05/01 08:33:50;;;;;;;24.17;13.30;;;;;;;16.20;83.86;102297.13;5105136;28;20184;-63
2022/05/01 08:36:16;;;;;;;23.15;12.70;;;;;;;16.63;78.24;102298.16;5105293;28;20020;-63
2022/05/01 08:38:42;;;;;;;24.98;13.32;;;;;;;17.21;76.25;102300.00;5106876;28;20032;-63
2022/05/01 08:41:09;;;;;;;23.73;13.48;;;;;;;17.75;73.12;102298.16;5104215;28;20052;-63
2022/05/01 08:43:35;;;;;;;22.65;10.35;;;;;;;17.98;51.85;102294.56;5107362;27;20059;-64
2022/05/01 08:46:15;;;;;;;20.73;9.63;;;;;;;18.14;49.60;102297.19;5103352;28;20521;-64
2022/05/01 08:48:59;;;;;;;22.25;11.32;;;;;;;18.64;49.81;102293.34;5104296;28;20533;-64
2022/05/01 08:51:25;;;;;;;21.13;9.60;;;;;;;19.14;40.71;102300.16;5104188;28;20024;-64
2022/05/01 08:53:52;;;;;;;22.00;10.15;;;;;;;19.36;40.47;102291.91;5105512;28;20020;-64
2022/05/01 08:56:18;;;;;;;21.20;9.40;;;;;;;19.66;39.50;102293.41;5105626;28;20026;-64
2022/05/01 08:58:43;;;;;;;19.45;8.15;;;;;;;20.21;35.56;102293.66;5104224;28;20039;-64
2022/05/01 09:01:09;;;;;;;15.25;5.47;;;;;;;20.80;31.78;102287.53;5106508;28;20027;-64
2022/05/01 09:03:35;;;;;;;18.20;6.75;;;;;;;20.79;32.54;102286.59;5103731;28;20393;-64
2022/05/01 09:06:00;;;;;;;20.40;7.78;;;;;;;20.51;32.92;102288.81;5105824;27;20040;-64
2022/05/01 09:08:26;;;;;;;17.88;7.32;;;;;;;19.17;32.79;102286.72;5107547;28;20028;-65
2022/05/01 09:10:52;;;;;;;18.45;7.13;;;;;;;18.38;35.19;102280.13;5113965;28;20042;-67
2022/05/01 09:13:24;;;;;;;20.58;7.60;;;;;;;18.06;35.12;102289.19;5113397;28;20056;-67
2022/05/01 09:15:49;;;;;;;20.63;7.40;;;;;;;17.88;35.17;102283.00;5114068;28;20514;-70
2022/05/01 09:18:15;;;;;;;20.98;8.07;;;;;;;17.73;35.66;102293.72;5114651;28;20027;-71
2022/05/01 09:21:01;;;;;;;20.00;7.82;;;;;;;18.12;36.27;102284.69;5114202;28;20030;-72
2022/05/01 09:23:36;;;;;;;19.50;7.97;;;;;;;18.33;36.08;102281.94;5113550;28;20028;-70
2022/05/01 09:26:02;;;;;;;19.25;7.32;;;;;;;18.72;33.87;102280.78;5110023;28;20035;-71
2022/05/01 09:28:28;;;;;;;19.58;7.88;;;;;;;19.00;33.28;102291.31;5114438;28;20024;-72
2022/05/01 09:30:53;;;;;;;19.73;7.60;;;;;;;18.55;32.58;102288.03;5113339;28;20027;-64
2022/05/01 09:33:21;;;;;;;19.27;7.68;;;;;;;17.82;34.20;102284.78;5113246;28;20019;-64
2022/05/01 09:35:48;;;;;;;20.20;8.52;;;;;;;16.79;35.75;102291.97;5113906;28;20069;-70
2022/05/01 09:38:25;;;;;;;19.60;8.77;;;;;;;15.78;37.86;102292.47;5110886;28;20115;-65
2022/05/01 09:41:04;;;;;;;21.42;8.07;;;;;;;15.59;38.53;102294.13;5112003;28;20073;-65
2022/05/01 09:43:38;;;;;;;20.60;9.07;;;;;;;15.27;38.23;102287.66;5102775;28;20020;-65
2022/05/01 09:46:10;;;;;;;20.65;8.63;;;;;;;15.30;39.93;102290.38;5104838;28;20075;-64
2022/05/01 09:48:35;;;;;;;19.90;8.55;;;;;;;15.74;39.16;102290.66;5103763;28;20027;-64
2022/05/01 09:51:13;;;;;;;19.27;8.43;;;;;;;16.10;38.67;102284.63;5105126;28;20024;-66
2022/05/01 09:53:42;;;;;;;20.67;8.75;;;;;;;16.56;36.69;102289.25;5104139;28;20378;-66
2022/05/01 09:56:07;;;;;;;21.50;9.20;;;;;;;16.76;36.75;102283.94;5104095;28;20465;-64
2022/05/01 09:58:33;;;;;;;24.60;8.90;;;;;;;18.20;33.95;102282.00;5103056;28;20031;-64
2022/05/01 10:01:07;;;;;;;19.38;8.52;;;;;;;20.52;31.20;102286.09;5105351;28;20016;-64
2022/05/01 10:03:35;;;;;;;19.98;8.40;;;;;;;21.56;28.29;102277.25;5103058;28;20020;-66
2022/05/01 10:06:00;;;;;;;20.80;8.63;;;;;;;21.32;28.03;102280.34;5105307;28;20027;-65
2022/05/01 10:08:26;;;;;;;20.85;8.15;;;;;;;21.30;29.12;102282.19;5102255;28;20028;-64
2022/05/01 10:11:02;;;;;;;20.23;8.80;;;;;;;21.18;30.54;102281.50;5101902;28;20027;-65
2022/05/01 10:13:28;;;;;;;19.92;8.30;;;;;;;21.33;28.62;102284.81;5101867;28;20038;-66
2022/05/01 10:15:54;;;;;;;19.70;8.38;;;;;;;21.29;29.05;102277.72;5103760;28;20059;-66
2022/05/01 10:18:22;;;;;;;19.73;8.38;;;;;;;21.28;28.95;102281.34;5104107;27;20417;-68
2022/05/01 10:20:48;;;;;;;19.98;8.32;;;;;;;20.75;29.81;102267.88;5104017;28;20432;-66
2022/05/01 10:23:13;;;;;;;20.23;8.50;;;;;;;20.07;30.44;102272.38;5102897;28;20026;-64
2022/05/01 10:25:52;;;;;;;19.55;8.65;;;;;;;19.77;31.29;102274.50;5102463;28;20020;-64
2022/05/01 10:28:43;;;;;;;21.60;9.30;;;;;;;19.29;31.24;102263.38;5103435;28;20039;-64
2022/05/01 10:34:48;;;;;;;20.50;8.68;;;;;;;19.55;32.05;102259.56;5105040;28;20039;-64
2022/05/01 10:37:49;;;;;;;20.02;8.70;;;;;;;19.24;31.17;102263.44;5102480;28;20032;-64
2022/05/01 10:40:15;;;;;;;19.67;8.40;;;;;;;19.19;31.05;102254.53;5102563;28;20056;-66
2022/05/01 10:42:52;;;;;;;18.90;8.30;;;;;;;19.37;31.92;102252.56;5104423;28;20068;-68
2022/05/01 10:45:23;;;;;;;20.92;9.18;;;;;;;19.16;30.79;102255.47;5102842;28;20028;-66
2022/05/01 10:47:53;;;;;;;20.48;9.20;;;;;;;19.00;32.01;102251.13;5103088;27;20492;-65
2022/05/01 10:50:28;;;;;;;19.75;8.70;;;;;;;19.08;32.11;102256.44;5102859;28;20028;-66
2022/05/01 10:53:16;;;;;;;19.85;8.35;;;;;;;19.19;32.56;102253.66;5101278;28;20032;-67
2022/05/01 10:55:52;;;;;;;21.40;9.95;;;;;;;19.15;32.50;102242.09;5101658;28;20505;-70
2022/05/01 10:58:26;;;;;;;21.45;9.35;;;;;;;19.29;31.95;102244.63;5103640;28;20381;-70
2022/05/01 11:00:53;;;;;;;20.63;9.10;;;;;;;19.47;29.72;102239.06;5103440;28;20028;-65
2022/05/01 11:03:27;;;;;;;19.73;8.85;;;;;;;19.64;30.86;102240.66;5102968;28;20028;-65
2022/05/01 11:06:06;;;;;;;19.73;8.50;;;;;;;19.92;29.77;102237.69;5103274;28;20475;-65
2022/05/01 11:08:36;;;;;;;19.60;8.60;;;;;;;20.16;29.22;102240.03;5101265;28;20020;-66
2022/05/01 11:11:05;;;;;;;19.60;8.55;;;;;;;20.47;28.64;102234.22;5101604;28;20027;-67
2022/05/01 11:13:35;;;;;;;20.17;8.38;;;;;;;20.53;29.18;102231.47;5100296;28;20372;-65
2022/05/01 11:16:01;;;;;;;19.63;8.32;;;;;;;20.48;29.09;102233.31;5101000;28;20093;-66
2022/05/01 11:18:47;;;;;;;20.50;8.48;;;;;;;20.70;29.42;102233.03;5103301;28;20016;-65
2022/05/01 11:21:19;;;;;;;20.70;8.85;;;;;;;20.51;29.21;102229.72;5060541;28;20534;-67
2022/05/01 11:23:45;;;;;;;19.37;8.00;;;;;;;20.72;28.81;102215.06;5059463;28;20060;-68
2022/05/01 11:26:13;;;;;;;20.75;8.68;;;;;;;20.37;28.74;102216.47;5061323;28;20348;-66
2022/05/01 11:28:45;;;;;;;20.02;9.05;;;;;;;20.35;29.34;102221.00;5041740;28;20424;-66
2022/05/01 11:31:35;;;;;;;20.73;9.30;;;;;;;20.18;30.09;102211.41;5061397;28;20043;-64
2022/05/01 11:34:24;;;;;;;19.92;8.30;;;;;;;20.00;30.62;102200.91;5043217;28;20033;-64
2022/05/01 11:37:03;;;;;;;19.67;8.25;;;;;;;19.98;30.56;102200.03;5063746;28;20090;-64